sensor_id;sensor_type;location;lat;lon;timestamp;pressure;altitude;pressure_sealevel;temperature;humidity
9721;BME280;4899;42.644;23.366;2023-04-24T00:00:31;94024.66;;;11.55;92.31
9721;BME280;4899;42.644;23.366;2023-04-24T00:02:56;94012.84;;;11.54;91.71
9721;BME280;4899;42.644;23.366;2023-04-24T00:05:23;94008.25;;;11.59;91.55
9721;BME280;4899;42.644;23.366;2023-04-24T00:07:49;94004.16;;;11.58;91.00
9721;BME280;4899;42.644;23.366;2023-04-24T00:10:18;94007.56;;;11.50;94.98
9721;BME280;4899;42.644;23.366;2023-04-24T00:12:44;93994.03;;;11.41;97.05
9721;BME280;4899;42.644;23.366;2023-04-24T00:15:10;93992.91;;;11.30;100.00
9721;BME280;4899;42.644;23.366;2023-04-24T00:17:35;93980.75;;;11.18;100.00
9721;BME280;4899;42.644;23.366;2023-04-24T00:20:01;93981.56;;;11.10;100.00
9721;BME280;4899;42.644;23.366;2023-04-24T00:22:30;93981.31;;;11.03;100.00
9721;BME280;4899;42.644;23.366;2023-04-24T00:24:56;93983.66;;;10.96;100.00
9721;BME280;4899;42.644;23.366;2023-04-24T00:27:22;93971.56;;;10.88;100.00
9721;BME280;4899;42.644;23.366;2023-04-24T00:29:48;93973.72;;;10.86;100.00
9721;BME280;4899;42.644;23.366;2023-04-24T00:32:14;93977.97;;;10.82;100.00
9721;BME280;4899;42.644;23.366;2023-04-24T00:34:40;93974.59;;;10.69;100.00
9721;BME280;4899;42.644;23.366;2023-04-24T00:37:05;93968.44;;;10.61;100.00
9721;BME280;4899;42.644;23.366;2023-04-24T00:39:31;93981.41;;;10.65;100.00
9721;BME280;4899;42.644;23.366;2023-04-24T00:41:57;93973.13;;;10.59;100.00
9721;BME280;4899;42.644;23.366;2023-04-24T00:44:22;93979.53;;;10.53;100.00
9721;BME280;4899;42.644;23.366;2023-04-24T00:46:49;93983.78;;;10.49;100.00
9721;BME280;4899;42.644;23.366;2023-04-24T00:49:23;93975.41;;;10.31;100.00
9721;BME280;4899;42.644;23.366;2023-04-24T00:51:48;93977.72;;;10.24;100.00
9721;BME280;4899;42.644;23.366;2023-04-24T00:54:14;93983.16;;;10.23;100.00
9721;BME280;4899;42.644;23.366;2023-04-24T00:56:41;93981.03;;;10.25;100.00
9721;BME280;4899;42.644;23.366;2023-04-24T00:59:08;93975.16;;;10.24;100.00
9721;BME280;4899;42.644;23.366;2023-04-24T01:01:35;93982.09;;;10.24;100.00
9721;BME280;4899;42.644;23.366;2023-04-24T01:04:01;93986.34;;;10.20;100.00
9721;BME280;4899;42.644;23.366;2023-04-24T01:06:28;93982.25;;;10.18;100.00
9721;BME280;4899;42.644;23.366;2023-04-24T01:08:54;93987.50;;;10.31;100.00
9721;BME280;4899;42.644;23.366;2023-04-24T01:11:21;93983.88;;;10.32;100.00
9721;BME280;4899;42.644;23.366;2023-04-24T01:13:47;93983.06;;;10.40;100.00
9721;BME280;4899;42.644;23.366;2023-04-24T01:16:14;93976.41;;;10.39;100.00
9721;BME280;4899;42.644;23.366;2023-04-24T01:18:40;93975.19;;;10.45;100.00
9721;BME280;4899;42.644;23.366;2023-04-24T01:21:08;93970.06;;;10.45;100.00
9721;BME280;4899;42.644;23.366;2023-04-24T01:23:34;93963.84;;;10.46;100.00
9721;BME280;4899;42.644;23.366;2023-04-24T01:26:00;93962.78;;;10.47;100.00
9721;BME280;4899;42.644;23.366;2023-04-24T01:28:25;93961.41;;;10.50;100.00
9721;BME280;4899;42.644;23.366;2023-04-24T01:30:51;93954.00;;;10.48;100.00
9721;BME280;4899;42.644;23.366;2023-04-24T01:33:18;93944.34;;;10.45;100.00
9721;BME280;4899;42.644;23.366;2023-04-24T01:35:43;93952.06;;;10.45;100.00
9721;BME280;4899;42.644;23.366;2023-04-24T01:38:09;93929.94;;;10.14;100.00
9721;BME280;4899;42.644;23.366;2023-04-24T01:40:34;93934.78;;;10.25;100.00
9721;BME280;4899;42.644;23.366;2023-04-24T01:43:00;93945.69;;;10.22;100.00
9721;BME280;4899;42.644;23.366;2023-04-24T01:45:25;93941.97;;;10.02;100.00
9721;BME280;4899;42.644;23.366;2023-04-24T01:47:51;93948.34;;;9.87;100.00
9721;BME280;4899;42.644;23.366;2023-04-24T01:50:17;93934.22;;;9.72;100.00
9721;BME280;4899;42.644;23.366;2023-04-24T01:52:43;93938.91;;;9.70;100.00
9721;BME280;4899;42.644;23.366;2023-04-24T01:55:09;93946.47;;;9.67;100.00
9721;BME280;4899;42.644;23.366;2023-04-24T01:57:35;93943.31;;;9.61;100.00
9721;BME280;4899;42.644;23.366;2023-04-24T02:00:02;93937.91;;;9.54;100.00
9721;BME280;4899;42.644;23.366;2023-04-24T02:02:29;93933.25;;;9.47;100.00
9721;BME280;4899;42.644;23.366;2023-04-24T02:04:55;93930.97;;;9.37;100.00
9721;BME280;4899;42.644;23.366;2023-04-24T02:07:21;93926.94;;;9.28;100.00
9721;BME280;4899;42.644;23.366;2023-04-24T02:09:46;93935.25;;;9.24;100.00
9721;BME280;4899;42.644;23.366;2023-04-24T02:12:12;93931.47;;;9.22;100.00
9721;BME280;4899;42.644;23.366;2023-04-24T02:14:37;93932.84;;;9.19;100.00
9721;BME280;4899;42.644;23.366;2023-04-24T02:17:03;93935.25;;;9.16;100.00
9721;BME280;4899;42.644;23.366;2023-04-24T02:19:30;93934.03;;;9.13;100.00
9721;BME280;4899;42.644;23.366;2023-04-24T02:21:55;93918.22;;;9.03;100.00
9721;BME280;4899;42.644;23.366;2023-04-24T02:24:21;93906.00;;;9.00;100.00
9721;BME280;4899;42.644;23.366;2023-04-24T02:26:46;93932.69;;;9.07;100.00
9721;BME280;4899;42.644;23.366;2023-04-24T02:29:12;93914.16;;;8.93;100.00
9721;BME280;4899;42.644;23.366;2023-04-24T02:31:37;93928.81;;;8.92;100.00
9721;BME280;4899;42.644;23.366;2023-04-24T02:34:02;93933.16;;;8.92;100.00
9721;BME280;4899;42.644;23.366;2023-04-24T02:36:28;93926.06;;;8.89;100.00
9721;BME280;4899;42.644;23.366;2023-04-24T02:38:54;93917.91;;;8.87;100.00
9721;BME280;4899;42.644;23.366;2023-04-24T02:41:20;93918.53;;;8.92;100.00
9721;BME280;4899;42.644;23.366;2023-04-24T02:43:45;93916.44;;;8.94;100.00
9721;BME280;4899;42.644;23.366;2023-04-24T02:46:11;93907.97;;;8.94;100.00
9721;BME280;4899;42.644;23.366;2023-04-24T02:48:36;93904.78;;;8.88;100.00
9721;BME280;4899;42.644;23.366;2023-04-24T02:51:01;93912.50;;;8.97;100.00
9721;BME280;4899;42.644;23.366;2023-04-24T02:53:27;93905.56;;;8.98;100.00
9721;BME280;4899;42.644;23.366;2023-04-24T02:55:53;93902.09;;;8.93;100.00
9721;BME280;4899;42.644;23.366;2023-04-24T02:58:19;93911.75;;;8.97;100.00
9721;BME280;4899;42.644;23.366;2023-04-24T03:00:45;93907.50;;;8.92;100.00
9721;BME280;4899;42.644;23.366;2023-04-24T03:03:11;93905.84;;;8.87;100.00
9721;BME280;4899;42.644;23.366;2023-04-24T03:05:36;93912.03;;;8.86;100.00
9721;BME280;4899;42.644;23.366;2023-04-24T03:08:02;93914.00;;;8.81;100.00
9721;BME280;4899;42.644;23.366;2023-04-24T03:10:30;93925.47;;;8.83;100.00
9721;BME280;4899;42.644;23.366;2023-04-24T03:12:55;93929.22;;;8.86;100.00
9721;BME280;4899;42.644;23.366;2023-04-24T03:15:21;93922.44;;;8.81;100.00
9721;BME280;4899;42.644;23.366;2023-04-24T03:17:46;93910.09;;;8.75;100.00
9721;BME280;4899;42.644;23.366;2023-04-24T03:20:12;93922.44;;;8.81;100.00
9721;BME280;4899;42.644;23.366;2023-04-24T03:22:56;93927.28;;;8.83;100.00
9721;BME280;4899;42.644;23.366;2023-04-24T03:25:22;93920.94;;;8.80;100.00
9721;BME280;4899;42.644;23.366;2023-04-24T03:27:47;93922.44;;;8.81;100.00
9721;BME280;4899;42.644;23.366;2023-04-24T03:30:13;93921.09;;;8.84;100.00
9721;BME280;4899;42.644;23.366;2023-04-24T03:32:38;93915.81;;;8.80;100.00
9721;BME280;4899;42.644;23.366;2023-04-24T03:35:06;93923.81;;;8.87;100.00
9721;BME280;4899;42.644;23.366;2023-04-24T03:37:32;93927.88;;;8.88;100.00
9721;BME280;4899;42.644;23.366;2023-04-24T03:39:58;93920.19;;;8.88;100.00
9721;BME280;4899;42.644;23.366;2023-04-24T03:42:23;93917.75;;;8.92;100.00
9721;BME280;4899;42.644;23.366;2023-04-24T03:44:49;93908.88;;;8.89;100.00
9721;BME280;4899;42.644;23.366;2023-04-24T03:47:14;93924.25;;;8.98;100.00
9721;BME280;4899;42.644;23.366;2023-04-24T03:49:40;93910.06;;;9.01;100.00
9721;BME280;4899;42.644;23.366;2023-04-24T03:52:11;93917.75;;;9.09;100.00
9721;BME280;4899;42.644;23.366;2023-04-24T03:54:36;93924.41;;;9.19;100.00
9721;BME280;4899;42.644;23.366;2023-04-24T03:57:02;93916.22;;;9.25;100.00
9721;BME280;4899;42.644;23.366;2023-04-24T03:59:30;93929.78;;;9.35;100.00
9721;BME280;4899;42.644;23.366;2023-04-24T04:01:55;93923.28;;;9.37;100.00
9721;BME280;4899;42.644;23.366;2023-04-24T04:04:20;93914.97;;;9.40;100.00
9721;BME280;4899;42.644;23.366;2023-04-24T04:06:47;93913.63;;;9.43;100.00
9721;BME280;4899;42.644;23.366;2023-04-24T04:09:13;93933.22;;;9.56;100.00
9721;BME280;4899;42.644;23.366;2023-04-24T04:11:38;93927.31;;;9.55;100.00
9721;BME280;4899;42.644;23.366;2023-04-24T04:14:04;93933.03;;;9.61;100.00
9721;BME280;4899;42.644;23.366;2023-04-24T04:16:29;93934.69;;;9.66;100.00
9721;BME280;4899;42.644;23.366;2023-04-24T04:18:55;93930.75;;;9.68;100.00
9721;BME280;4899;42.644;23.366;2023-04-24T04:21:21;93937.25;;;9.74;100.00
9721;BME280;4899;42.644;23.366;2023-04-24T04:23:46;93930.56;;;9.82;100.00
9721;BME280;4899;42.644;23.366;2023-04-24T04:26:12;93928.88;;;9.86;100.00
9721;BME280;4899;42.644;23.366;2023-04-24T04:28:38;93931.72;;;9.93;100.00
9721;BME280;4899;42.644;23.366;2023-04-24T04:31:04;93937.69;;;10.06;100.00
9721;BME280;4899;42.644;23.366;2023-04-24T04:33:30;93947.34;;;10.17;100.00
9721;BME280;4899;42.644;23.366;2023-04-24T04:35:56;93942.03;;;10.23;100.00
9721;BME280;4899;42.644;23.366;2023-04-24T04:38:22;93936.28;;;10.26;100.00
9721;BME280;4899;42.644;23.366;2023-04-24T04:40:47;93935.91;;;10.36;100.00
9721;BME280;4899;42.644;23.366;2023-04-24T04:43:13;93932.28;;;10.37;100.00
9721;BME280;4899;42.644;23.366;2023-04-24T04:45:40;93944.78;;;10.47;100.00
9721;BME280;4899;42.644;23.366;2023-04-24T04:48:06;93943.53;;;10.53;100.00
9721;BME280;4899;42.644;23.366;2023-04-24T04:50:37;93948.47;;;10.58;100.00
9721;BME280;4899;42.644;23.366;2023-04-24T04:53:03;93960.53;;;10.66;100.00
9721;BME280;4899;42.644;23.366;2023-04-24T04:55:28;93964.94;;;10.66;100.00
9721;BME280;4899;42.644;23.366;2023-04-24T04:57:54;93962.66;;;10.64;100.00
9721;BME280;4899;42.644;23.366;2023-04-24T05:00:21;93967.31;;;10.71;100.00
9721;BME280;4899;42.644;23.366;2023-04-24T05:02:47;93961.00;;;10.68;100.00
9721;BME280;4899;42.644;23.366;2023-04-24T05:05:12;93957.22;;;10.66;100.00
9721;BME280;4899;42.644;23.366;2023-04-24T05:07:37;93958.78;;;10.79;100.00
9721;BME280;4899;42.644;23.366;2023-04-24T05:10:03;93964.91;;;10.87;100.00
9721;BME280;4899;42.644;23.366;2023-04-24T05:12:29;93960.69;;;10.91;100.00
9721;BME280;4899;42.644;23.366;2023-04-24T05:14:54;93951.13;;;10.91;100.00
9721;BME280;4899;42.644;23.366;2023-04-24T05:17:20;93954.59;;;10.95;100.00
9721;BME280;4899;42.644;23.366;2023-04-24T05:19:46;93959.66;;;11.04;100.00
9721;BME280;4899;42.644;23.366;2023-04-24T05:22:11;93949.13;;;10.97;100.00
9721;BME280;4899;42.644;23.366;2023-04-24T05:24:37;93967.72;;;11.15;100.00
9721;BME280;4899;42.644;23.366;2023-04-24T05:27:03;93969.81;;;11.21;100.00
9721;BME280;4899;42.644;23.366;2023-04-24T05:29:30;93967.47;;;11.28;100.00
9721;BME280;4899;42.644;23.366;2023-04-24T05:31:56;93950.53;;;11.27;100.00
9721;BME280;4899;42.644;23.366;2023-04-24T05:34:22;93957.72;;;11.34;100.00
9721;BME280;4899;42.644;23.366;2023-04-24T05:36:47;93964.00;;;11.45;100.00
9721;BME280;4899;42.644;23.366;2023-04-24T05:39:13;93971.72;;;11.45;100.00
9721;BME280;4899;42.644;23.366;2023-04-24T05:41:39;93959.03;;;11.40;100.00
9721;BME280;4899;42.644;23.366;2023-04-24T05:44:04;93969.69;;;11.51;100.00
9721;BME280;4899;42.644;23.366;2023-04-24T05:46:30;93973.34;;;11.50;100.00
9721;BME280;4899;42.644;23.366;2023-04-24T05:48:55;93972.50;;;11.58;100.00
9721;BME280;4899;42.644;23.366;2023-04-24T05:51:21;93977.00;;;11.61;100.00
9721;BME280;4899;42.644;23.366;2023-04-24T05:53:46;93979.84;;;11.68;100.00
9721;BME280;4899;42.644;23.366;2023-04-24T05:56:12;93978.13;;;11.72;100.00
9721;BME280;4899;42.644;23.366;2023-04-24T05:58:37;93973.09;;;11.76;100.00
9721;BME280;4899;42.644;23.366;2023-04-24T06:01:03;93970.88;;;11.86;100.00
9721;BME280;4899;42.644;23.366;2023-04-24T06:03:28;93956.25;;;11.78;100.00
9721;BME280;4899;42.644;23.366;2023-04-24T06:05:54;93961.44;;;11.90;100.00
9721;BME280;4899;42.644;23.366;2023-04-24T06:08:19;93970.25;;;12.01;100.00
9721;BME280;4899;42.644;23.366;2023-04-24T06:10:45;93968.53;;;12.06;100.00
9721;BME280;4899;42.644;23.366;2023-04-24T06:13:10;93967.66;;;12.14;100.00
9721;BME280;4899;42.644;23.366;2023-04-24T06:15:36;93973.47;;;12.23;100.00
9721;BME280;4899;42.644;23.366;2023-04-24T06:18:02;93970.25;;;12.38;100.00
9721;BME280;4899;42.644;23.366;2023-04-24T06:20:28;93962.31;;;12.43;99.05
9721;BME280;4899;42.644;23.366;2023-04-24T06:22:53;93965.50;;;12.52;96.58
9721;BME280;4899;42.644;23.366;2023-04-24T06:25:19;93967.25;;;12.48;96.64
9721;BME280;4899;42.644;23.366;2023-04-24T06:27:45;93968.63;;;12.58;96.19
9721;BME280;4899;42.644;23.366;2023-04-24T06:30:10;93967.63;;;12.75;94.79
9721;BME280;4899;42.644;23.366;2023-04-24T06:32:36;93972.13;;;12.90;92.48
9721;BME280;4899;42.644;23.366;2023-04-24T06:35:01;93975.84;;;13.05;92.79
9721;BME280;4899;42.644;23.366;2023-04-24T06:37:32;93970.34;;;13.18;90.50
9721;BME280;4899;42.644;23.366;2023-04-24T06:39:57;93972.63;;;13.36;89.25
9721;BME280;4899;42.644;23.366;2023-04-24T06:42:23;93977.34;;;13.46;88.96
9721;BME280;4899;42.644;23.366;2023-04-24T06:44:50;93966.03;;;13.66;86.77
9721;BME280;4899;42.644;23.366;2023-04-24T06:47:15;93982.38;;;13.86;84.67
9721;BME280;4899;42.644;23.366;2023-04-24T06:49:41;93980.91;;;14.01;83.18
9721;BME280;4899;42.644;23.366;2023-04-24T06:52:07;93984.41;;;14.08;81.81
9721;BME280;4899;42.644;23.366;2023-04-24T06:54:32;93976.31;;;14.10;81.75
9721;BME280;4899;42.644;23.366;2023-04-24T06:56:59;93981.88;;;14.12;81.64
9721;BME280;4899;42.644;23.366;2023-04-24T06:59:26;93970.31;;;14.06;81.51
9721;BME280;4899;42.644;23.366;2023-04-24T07:01:52;93961.88;;;14.09;80.89
9721;BME280;4899;42.644;23.366;2023-04-24T07:04:17;93958.88;;;14.07;81.06
9721;BME280;4899;42.644;23.366;2023-04-24T07:06:45;93968.53;;;14.10;79.56
9721;BME280;4899;42.644;23.366;2023-04-24T07:09:11;93977.38;;;14.09;80.11
9721;BME280;4899;42.644;23.366;2023-04-24T07:11:37;93967.91;;;14.13;79.56
9721;BME280;4899;42.644;23.366;2023-04-24T07:14:04;93958.72;;;14.15;78.47
9721;BME280;4899;42.644;23.366;2023-04-24T07:16:29;93958.38;;;14.17;77.96
9721;BME280;4899;42.644;23.366;2023-04-24T07:18:55;93966.72;;;14.26;76.28
9721;BME280;4899;42.644;23.366;2023-04-24T07:21:20;93960.59;;;14.34;75.92
9721;BME280;4899;42.644;23.366;2023-04-24T07:23:46;93959.84;;;14.34;75.82
9721;BME280;4899;42.644;23.366;2023-04-24T07:26:12;93957.84;;;14.27;76.31
9721;BME280;4899;42.644;23.366;2023-04-24T07:28:37;93953.09;;;14.29;76.23
9721;BME280;4899;42.644;23.366;2023-04-24T07:31:03;93958.78;;;14.51;74.88
9721;BME280;4899;42.644;23.366;2023-04-24T07:33:28;93956.50;;;14.65;74.16
9721;BME280;4899;42.644;23.366;2023-04-24T07:35:53;93952.41;;;14.83;73.15
9721;BME280;4899;42.644;23.366;2023-04-24T07:38:19;93951.22;;;14.96;71.25
9721;BME280;4899;42.644;23.366;2023-04-24T07:40:48;93948.47;;;15.08;70.20
9721;BME280;4899;42.644;23.366;2023-04-24T07:43:14;93952.03;;;15.20;70.07
9721;BME280;4899;42.644;23.366;2023-04-24T07:45:39;93948.19;;;15.33;69.37
9721;BME280;4899;42.644;23.366;2023-04-24T07:48:05;93937.81;;;15.33;67.50
9721;BME280;4899;42.644;23.366;2023-04-24T07:50:31;93937.28;;;15.43;67.66
9721;BME280;4899;42.644;23.366;2023-04-24T07:52:57;93945.56;;;15.52;67.86
9721;BME280;4899;42.644;23.366;2023-04-24T07:55:23;93944.41;;;15.69;66.93
9721;BME280;4899;42.644;23.366;2023-04-24T07:57:48;93927.47;;;15.75;65.89
9721;BME280;4899;42.644;23.366;2023-04-24T08:00:14;93934.91;;;15.99;65.52
9721;BME280;4899;42.644;23.366;2023-04-24T08:02:39;93894.25;;;15.84;64.30
9721;BME280;4899;42.644;23.366;2023-04-24T08:05:05;93937.13;;;16.24;63.45
9721;BME280;4899;42.644;23.366;2023-04-24T08:07:31;93929.78;;;16.29;62.57
9721;BME280;4899;42.644;23.366;2023-04-24T08:09:57;93933.00;;;16.46;61.25
9721;BME280;4899;42.644;23.366;2023-04-24T08:12:22;93936.47;;;16.57;60.62
9721;BME280;4899;42.644;23.366;2023-04-24T08:14:48;93929.13;;;16.63;59.74
9721;BME280;4899;42.644;23.366;2023-04-24T08:17:13;93930.09;;;16.77;59.71
9721;BME280;4899;42.644;23.366;2023-04-24T08:19:40;93920.75;;;16.73;59.12
9721;BME280;4899;42.644;23.366;2023-04-24T08:22:12;93929.75;;;16.82;59.40
9721;BME280;4899;42.644;23.366;2023-04-24T08:24:38;93919.53;;;16.93;59.70
9721;BME280;4899;42.644;23.366;2023-04-24T08:27:03;93924.50;;;17.09;58.83
9721;BME280;4899;42.644;23.366;2023-04-24T08:29:28;93920.56;;;17.22;58.05
9721;BME280;4899;42.644;23.366;2023-04-24T08:31:54;93917.78;;;17.38;57.92
9721;BME280;4899;42.644;23.366;2023-04-24T08:34:21;93923.03;;;17.45;57.40
9721;BME280;4899;42.644;23.366;2023-04-24T08:36:46;93914.94;;;17.53;56.81
9721;BME280;4899;42.644;23.366;2023-04-24T08:39:12;93913.44;;;17.52;56.34
9721;BME280;4899;42.644;23.366;2023-04-24T08:41:37;93909.78;;;17.57;56.19
9721;BME280;4899;42.644;23.366;2023-04-24T08:44:03;93896.38;;;17.55;56.60
9721;BME280;4899;42.644;23.366;2023-04-24T08:46:30;93898.41;;;17.69;56.59
9721;BME280;4899;42.644;23.366;2023-04-24T08:48:56;93901.56;;;17.92;56.44
9721;BME280;4899;42.644;23.366;2023-04-24T08:51:22;93893.06;;;17.99;56.00
9721;BME280;4899;42.644;23.366;2023-04-24T08:53:53;93905.06;;;18.14;55.25
9721;BME280;4899;42.644;23.366;2023-04-24T08:56:21;93903.63;;;18.24;55.06
9721;BME280;4899;42.644;23.366;2023-04-24T08:58:50;93897.06;;;18.40;54.77
9721;BME280;4899;42.644;23.366;2023-04-24T09:01:17;93875.91;;;18.56;54.39
9721;BME280;4899;42.644;23.366;2023-04-24T09:03:43;93886.81;;;18.80;54.12
9721;BME280;4899;42.644;23.366;2023-04-24T09:06:11;93877.22;;;18.94;52.84
9721;BME280;4899;42.644;23.366;2023-04-24T09:08:37;93875.78;;;19.11;53.32
9721;BME280;4899;42.644;23.366;2023-04-24T09:11:04;93875.78;;;19.22;52.47
9721;BME280;4899;42.644;23.366;2023-04-24T09:13:30;93883.66;;;19.43;51.81
9721;BME280;4899;42.644;23.366;2023-04-24T09:15:57;93866.50;;;19.31;51.47
9721;BME280;4899;42.644;23.366;2023-04-24T09:18:22;93879.56;;;19.42;51.14
9721;BME280;4899;42.644;23.366;2023-04-24T09:21:03;93877.38;;;19.62;50.08
9721;BME280;4899;42.644;23.366;2023-04-24T09:23:30;93875.16;;;19.89;51.13
9721;BME280;4899;42.644;23.366;2023-04-24T09:25:57;93862.47;;;19.94;51.08
9721;BME280;4899;42.644;23.366;2023-04-24T09:28:29;93871.41;;;20.01;50.77
9721;BME280;4899;42.644;23.366;2023-04-24T09:31:22;93865.44;;;20.04;48.74
9721;BME280;4899;42.644;23.366;2023-04-24T09:34:02;93855.72;;;20.15;48.65
9721;BME280;4899;42.644;23.366;2023-04-24T09:36:33;93857.19;;;20.30;49.85
9721;BME280;4899;42.644;23.366;2023-04-24T09:39:00;93853.44;;;20.45;49.66
9721;BME280;4899;42.644;23.366;2023-04-24T09:41:26;93843.72;;;20.53;49.17
9721;BME280;4899;42.644;23.366;2023-04-24T09:43:56;93846.69;;;20.62;47.66
9721;BME280;4899;42.644;23.366;2023-04-24T09:46:29;93837.69;;;20.67;46.94
9721;BME280;4899;42.644;23.366;2023-04-24T09:48:55;93845.50;;;20.74;48.27
9721;BME280;4899;42.644;23.366;2023-04-24T09:51:33;93844.44;;;20.57;46.08
9721;BME280;4899;42.644;23.366;2023-04-24T09:53:59;93847.81;;;20.57;47.63
9721;BME280;4899;42.644;23.366;2023-04-24T09:56:25;93832.88;;;20.62;47.93
9721;BME280;4899;42.644;23.366;2023-04-24T09:58:51;93836.16;;;20.76;47.91
9721;BME280;4899;42.644;23.366;2023-04-24T10:01:30;93828.72;;;20.71;46.93
9721;BME280;4899;42.644;23.366;2023-04-24T10:03:55;93832.47;;;20.67;47.99
9721;BME280;4899;42.644;23.366;2023-04-24T10:06:21;93826.44;;;20.77;47.93
9721;BME280;4899;42.644;23.366;2023-04-24T10:08:48;93824.22;;;20.75;46.32
9721;BME280;4899;42.644;23.366;2023-04-24T10:11:13;93825.69;;;20.76;47.73
9721;BME280;4899;42.644;23.366;2023-04-24T10:13:39;93825.16;;;21.10;47.22
9721;BME280;4899;42.644;23.366;2023-04-24T10:16:06;93813.84;;;21.34;46.89
9721;BME280;4899;42.644;23.366;2023-04-24T10:18:33;93805.75;;;21.63;46.63
9721;BME280;4899;42.644;23.366;2023-04-24T10:20:59;93806.19;;;21.99;46.06
9721;BME280;4899;42.644;23.366;2023-04-24T10:23:25;93797.69;;;21.88;45.36
9721;BME280;4899;42.644;23.366;2023-04-24T10:25:52;93801.19;;;21.70;45.51
9721;BME280;4899;42.644;23.366;2023-04-24T10:28:18;93793.09;;;21.54;45.09
9721;BME280;4899;42.644;23.366;2023-04-24T10:30:45;93797.41;;;21.75;44.80
9721;BME280;4899;42.644;23.366;2023-04-24T10:33:11;93791.00;;;21.83;44.61
9721;BME280;4899;42.644;23.366;2023-04-24T10:35:42;93794.13;;;22.12;44.61
9721;BME280;4899;42.644;23.366;2023-04-24T10:38:12;93790.25;;;22.58;43.69
9721;BME280;4899;42.644;23.366;2023-04-24T10:40:38;93793.34;;;22.76;43.69
9721;BME280;4899;42.644;23.366;2023-04-24T10:43:05;93787.00;;;23.08;43.14
9721;BME280;4899;42.644;23.366;2023-04-24T10:45:33;93778.28;;;23.14;43.02
9721;BME280;4899;42.644;23.366;2023-04-24T10:48:01;93781.31;;;23.36;42.37
9721;BME280;4899;42.644;23.366;2023-04-24T10:50:29;93777.31;;;23.28;42.62
9721;BME280;4899;42.644;23.366;2023-04-24T10:53:06;93766.44;;;23.02;41.19
9721;BME280;4899;42.644;23.366;2023-04-24T10:58:07;93772.31;;;23.37;41.50
9721;BME280;4899;42.644;23.366;2023-04-24T11:00:36;93760.88;;;23.47;40.76
9721;BME280;4899;42.644;23.366;2023-04-24T11:03:05;93758.53;;;23.56;40.59
9721;BME280;4899;42.644;23.366;2023-04-24T11:05:50;93742.41;;;23.31;37.83
9721;BME280;4899;42.644;23.366;2023-04-24T11:08:25;93754.47;;;23.25;39.14
9721;BME280;4899;42.644;23.366;2023-04-24T11:32:30;93792.44;;;20.80;41.88
9721;BME280;4899;42.644;23.366;2023-04-24T11:34:58;93778.09;;;20.26;42.95
9721;BME280;4899;42.644;23.366;2023-04-24T11:37:26;93789.34;;;20.12;43.53
9721;BME280;4899;42.644;23.366;2023-04-24T11:39:56;93788.56;;;20.15;45.00
9721;BME280;4899;42.644;23.366;2023-04-24T11:42:22;93793.47;;;19.46;45.37
9721;BME280;4899;42.644;23.366;2023-04-24T11:44:51;93783.75;;;19.07;46.16
9721;BME280;4899;42.644;23.366;2023-04-24T11:47:17;93781.50;;;18.91;47.04
9721;BME280;4899;42.644;23.366;2023-04-24T11:49:43;93787.78;;;18.69;48.03
9721;BME280;4899;42.644;23.366;2023-04-24T11:52:08;93790.31;;;18.58;49.66
9721;BME280;4899;42.644;23.366;2023-04-24T11:54:34;93777.94;;;18.34;52.47
9721;BME280;4899;42.644;23.366;2023-04-24T11:57:04;93775.09;;;18.60;52.73
9721;BME280;4899;42.644;23.366;2023-04-24T11:59:30;93764.03;;;19.27;50.67
9721;BME280;4899;42.644;23.366;2023-04-24T12:01:57;93761.03;;;19.86;49.50
9721;BME280;4899;42.644;23.366;2023-04-24T12:04:22;93760.53;;;20.34;48.49
9721;BME280;4899;42.644;23.366;2023-04-24T12:07:03;93751.81;;;20.69;46.98
9721;BME280;4899;42.644;23.366;2023-04-24T12:09:46;93750.69;;;21.29;46.61
9721;BME280;4899;42.644;23.366;2023-04-24T12:12:13;93742.38;;;21.82;46.19
9721;BME280;4899;42.644;23.366;2023-04-24T12:14:48;93739.81;;;21.75;45.61
9721;BME280;4899;42.644;23.366;2023-04-24T12:17:23;93744.06;;;21.99;45.67
9721;BME280;4899;42.644;23.366;2023-04-24T12:19:48;93733.72;;;21.47;46.42
9721;BME280;4899;42.644;23.366;2023-04-24T12:22:16;93741.31;;;21.31;47.14
9721;BME280;4899;42.644;23.366;2023-04-24T12:25:02;93743.50;;;20.84;47.17
9721;BME280;4899;42.644;23.366;2023-04-24T12:27:32;93742.75;;;20.84;47.31
9721;BME280;4899;42.644;23.366;2023-04-24T12:30:02;93745.84;;;20.65;47.53
9721;BME280;4899;42.644;23.366;2023-04-24T12:32:28;93722.56;;;20.01;47.77
9721;BME280;4899;42.644;23.366;2023-04-24T12:34:54;93716.66;;;19.82;48.09
9721;BME280;4899;42.644;23.366;2023-04-24T12:37:22;93713.34;;;19.50;48.69
9721;BME280;4899;42.644;23.366;2023-04-24T12:40:04;93685.44;;;19.25;50.08
9721;BME280;4899;42.644;23.366;2023-04-24T12:42:31;93684.28;;;19.65;49.07
9721;BME280;4899;42.644;23.366;2023-04-24T12:44:58;93695.03;;;19.82;48.60
9721;BME280;4899;42.644;23.366;2023-04-24T12:47:25;93678.91;;;20.05;48.20
9721;BME280;4899;42.644;23.366;2023-04-24T12:49:50;93678.56;;;20.03;48.62
9721;BME280;4899;42.644;23.366;2023-04-24T12:52:20;93674.78;;;20.14;48.41
9721;BME280;4899;42.644;23.366;2023-04-24T12:54:46;93667.59;;;20.29;47.65
9721;BME280;4899;42.644;23.366;2023-04-24T12:57:12;93677.28;;;20.43;46.96
9721;BME280;4899;42.644;23.366;2023-04-24T12:59:37;93652.59;;;20.51;46.86
9721;BME280;4899;42.644;23.366;2023-04-24T13:02:04;93656.56;;;20.70;46.78
9721;BME280;4899;42.644;23.366;2023-04-24T13:04:30;93651.63;;;20.86;46.94
9721;BME280;4899;42.644;23.366;2023-04-24T13:06:55;93649.53;;;21.11;46.81
9721;BME280;4899;42.644;23.366;2023-04-24T13:09:20;93639.31;;;21.28;46.54
9721;BME280;4899;42.644;23.366;2023-04-24T13:11:46;93647.25;;;21.58;46.39
9721;BME280;4899;42.644;23.366;2023-04-24T13:14:12;93635.03;;;21.78;46.20
9721;BME280;4899;42.644;23.366;2023-04-24T13:16:37;93636.44;;;22.21;46.09
9721;BME280;4899;42.644;23.366;2023-04-24T13:19:03;93631.56;;;22.73;45.62
9721;BME280;4899;42.644;23.366;2023-04-24T13:21:30;93638.84;;;23.36;45.17
9721;BME280;4899;42.644;23.366;2023-04-24T13:23:55;93633.09;;;24.40;44.75
9721;BME280;4899;42.644;23.366;2023-04-24T13:26:21;93630.16;;;24.87;44.31
9721;BME280;4899;42.644;23.366;2023-04-24T13:28:46;93635.28;;;25.10;43.88